Crystal Mt.
Crystal Mt. Ski Area
Latest observation 09/03 18:00 PDT
| Time (PDT) | Temp °F 6830' | Temp °F 4540' | RH % 6830' | RH % 4540' | Min 6830' | Spd 6830' | Gust 6830' | Dir 6830' | Pcp1 in 4540' | PcpSum in 4540' | 24Sno in 4540' | SnoHt in 4540' |
|---|---|---|---|---|---|---|---|---|---|---|---|---|
| 09/03 18:00 | – | 43 | – | 87 | – | – | – | – | 0.00 | 0.05 | 0.1 | 0.8 |
| 09/03 17:00 | – | 45 | – | 82 | – | – | – | – | 0.00 | 0.05 | 0.1 | 0.1 |
| 09/03 16:00 | – | 50 | – | 63 | – | – | – | – | 0.00 | 0.05 | 0.0 | 0.5 |
| 09/03 15:00 | – | 48 | – | 69 | – | – | – | – | 0.00 | 0.05 | 0.1 | 0.3 |
| 09/03 14:00 | – | 49 | – | 70 | – | – | – | – | 0.00 | 0.05 | 0.0 | 0.4 |
| 09/03 13:00 | – | 46 | – | 77 | – | – | – | – | 0.00 | 0.05 | 0.1 | -0.2 |
| 09/03 12:00 | – | 46 | – | 77 | – | – | – | – | 0.00 | 0.05 | 0.1 | 0.0 |
| 09/03 11:00 | – | 45 | – | 82 | – | – | – | – | 0.00 | 0.05 | 0.1 | -0.1 |
| 09/03 10:00 | – | 43 | – | 89 | – | – | – | – | 0.00 | 0.05 | 0.1 | -0.0 |
| 09/03 09:00 | – | 41 | – | 91 | – | – | – | – | 0.01 | 0.05 | 0.1 | 0.2 |
| 09/03 08:00 | – | 41 | – | 97 | – | – | – | – | 0.00 | 0.04 | 0.1 | 0.4 |
| 09/03 07:00 | – | 39 | – | 98 | – | – | – | – | 0.00 | 0.04 | 0.1 | 0.1 |
| 09/03 06:00 | – | 38 | – | 99 | – | – | – | – | 0.00 | 0.04 | 0.1 | 0.1 |
| 09/03 05:00 | – | 37 | – | 100 | – | – | – | – | 0.00 | 0.04 | 0.1 | 0.3 |
| 09/03 04:00 | – | 35 | – | 99 | – | – | – | – | 0.00 | 0.04 | 0.1 | 0.2 |
| 09/03 03:00 | – | 35 | – | 99 | – | – | – | – | 0.00 | 0.04 | 0.1 | 0.3 |
| 09/03 02:00 | – | 36 | – | 98 | – | – | – | – | 0.00 | 0.04 | 0.1 | 0.1 |
| 09/03 01:00 | – | 37 | – | 98 | – | – | – | – | 0.00 | 0.04 | 0.1 | 0.1 |
| 09/03 00:00 | – | 40 | – | 97 | – | – | – | – | 0.00 | 0.04 | 0.1 | 0.1 |
| 09/02 23:00 | – | 40 | – | 98 | – | – | – | – | 0.00 | 0.04 | 0.1 | 0.1 |
| 09/02 22:00 | – | 40 | – | 97 | – | – | – | – | 0.00 | 0.04 | 0.1 | 0.1 |
| 09/02 21:00 | – | 43 | – | 98 | – | – | – | – | 0.00 | 0.04 | 0.1 | 0.1 |
| 09/02 20:00 | – | 45 | – | 97 | – | – | – | – | 0.02 | 0.04 | 0.1 | 0.5 |
| 09/02 19:00 | – | 45 | – | 96 | – | – | – | – | 0.02 | 0.02 | 0.1 | 0.4 |

